Scf Baltica — A8IA5 — position and weather

sailwx.info

Track history (hours):
 
Tides and Currents Weather Stations Pressure Air Temp Water Temp Dewpoint Dewpoint Depression Visibility Wind Speed Wind Dir Waves Ship Positions

Scf Baltica

Last reported at 2016-May-04 20:32 UTC. Time now 2016-May-04 21:10 UTC.
Position N 51°57' E 004°09'.

Length 250 m; draft 11.9 m.

Type: Ship. MMSI: 636012813.

Date/timePositionNaut miles runAvg speedWind from/ knotsBaromVisibWave heightAir tempDewpointWater temp
2016-May-04 20:32N 51°57' E 004°09'0 0.0
2016-May-04 19:33N 51°57' E 004°09'4 3.7
2016-May-04 18:33N 51°59' E 004°04'1010.1
2016-May-04 17:33N 52°00' E 003°47'1210.8
2016-May-04 16:29N 52°07' E 003°32'3 0.9
2016-May-04 12:32N 52°11' E 003°34'0 0.0
2016-May-04 11:31N 52°11' E 003°34'0 0.1
2016-May-04 08:29N 52°10' E 003°33'0 0.0
2016-May-04 06:11N 52°10' E 003°33'0 0.1
2016-May-04 04:19N 52°10' E 003°34'0 0.2
2016-May-04 03:20N 52°11' E 003°34'0 0.0
2016-May-03 23:19N 52°11' E 003°34'0 0.6
2016-May-03 22:28N 52°11' E 003°34'2110.2
2016-May-03 20:24N 52°17' E 003°01'1113.1
2016-May-03 19:33N 52°23' E 002°46'1312.8
2016-May-03 18:33N 52°34' E 002°37'13211.8
2016-May-03 07:22N 54°30' E 000°48'1012.6
2016-May-03 06:33N 54°36' E 000°35'1312.8
2016-May-03 05:33N 54°45' E 000°19'1313.1
2016-May-03 04:33N 54°54' E 000°02'1313.3
2016-May-03 03:33N 55°03' W 000°15'1613.6
2016-May-03 02:21N 55°14' W 000°36'1113.7
2016-May-03 01:33N 55°21' W 000°50'4314.4
2016-May-02 22:33N 55°50' W 001°47'1413.8
2016-May-02 21:33N 55°59' W 002°05'1413.6
2016-May-02 20:33N 56°06' W 002°27'1212.4
2016-May-02 19:34N 56°06' W 002°49'1111.3
2016-May-02 18:33N 56°03' W 003°09'7 7.2
2016-May-02 17:33N 56°01' W 003°21'0 0.0
2016-May-01 15:33N 56°01' W 003°21'7 7.2
2016-May-01 14:33N 56°03' W 003°09'8 7.9
2016-May-01 13:33N 56°05' W 002°55'1010.3
2016-May-01 12:33N 56°07' W 002°37'9 9.3
2016-May-01 11:33N 56°07' W 002°20'10 9.7
2016-May-01 10:33N 56°16' W 002°18'2 2.0
2016-May-01 09:33N 56°18' W 002°16'1 1.3
2016-May-01 08:33N 56°17' W 002°14'2 1.5
2016-May-01 07:33N 56°17' W 002°12'2 1.5
2016-May-01 06:33N 56°16' W 002°09'1 1.4
2016-May-01 05:33N 56°15' W 002°07'2 1.6
2016-May-01 04:33N 56°14' W 002°06'2 1.9
2016-May-01 03:33N 56°13' W 002°04'2 2.2
2016-May-01 02:33N 56°11' W 002°03'2 2.3
2016-May-01 01:33N 56°08' W 002°01'2 2.0
2016-May-01 00:33N 56°07' W 001°60'1 1.4
2016-Apr-30 23:33N 56°05' W 001°59'1 0.9
2016-Apr-30 22:32N 56°04' W 001°59'1 0.7
2016-Apr-30 21:33N 56°04' W 001°59'0 0.4
2016-Apr-30 20:33N 56°03' W 001°58'0 0.4
2016-Apr-30 19:18N 56°03' W 001°57'0 0.7
2016-Apr-30 18:33N 56°03' W 001°57'1 1.2
2016-Apr-30 17:33N 56°03' W 001°54'2 1.5
2016-Apr-30 16:33N 56°03' W 001°52'2 1.8
2016-Apr-30 15:33N 56°02' W 001°49'2 1.6
2016-Apr-30 14:31N 56°02' W 001°46'2 1.3
2016-Apr-30 13:17N 56°02' W 001°43'1 1.8
2016-Apr-30 12:33N 56°01' W 001°42'9 8.7
2016-Apr-30 11:33N 55°56' W 001°55'8 8.2
2016-Apr-30 10:33N 55°50' W 001°46'36 8.6
2016-Apr-30 06:25N 55°25' W 000°59'25 8.8
2016-Apr-30 03:33N 55°08' W 000°26'10 8.7
2016-Apr-30 02:25N 55°02' W 000°13'7 8.5
2016-Apr-30 01:33N 54°57' W 000°04'8 8.0
2016-Apr-30 00:33N 54°52' E 000°06'8 8.0
2016-Apr-29 23:33N 54°46' E 000°17'8 7.8
2016-Apr-29 22:33N 54°41' E 000°27'7 6.7
2016-Apr-29 21:30N 54°36' E 000°36'184 8.4
2016-Apr-28 23:32N 52°07' E 003°37'1010.1
2016-Apr-28 22:33N 52°03' E 003°52'9 9.4
2016-Apr-28 21:34N 51°58' E 004°05'0 0.5
2016-Apr-28 20:33N 51°58' E 004°04'0 0.0
2016-Apr-28 19:33N 51°58' E 004°04'0 0.0
2016-Apr-28 18:33N 51°58' E 004°04'0 0.0
2016-Apr-28 17:33N 51°58' E 004°04'0 0.0
2016-Apr-28 16:33N 51°58' E 004°04'0 0.0
2016-Apr-28 15:33N 51°58' E 004°04'0 0.0
2016-Apr-28 14:33N 51°58' E 004°04'0 0.0
2016-Apr-28 13:30N 51°58' E 004°04'0 0.0
2016-Apr-28 12:33N 51°58' E 004°04'0 0.0
2016-Apr-28 11:33N 51°58' E 004°04'0 0.0
2016-Apr-28 10:27N 51°58' E 004°04'0 0.0
2016-Apr-28 09:33N 51°58' E 004°04'0 0.0
2016-Apr-28 08:33N 51°58' E 004°04'0 0.0
2016-Apr-28 07:33N 51°58' E 004°04'0 0.0
2016-Apr-28 06:33N 51°58' E 004°04'0 0.0
2016-Apr-28 05:33N 51°58' E 004°04'0 0.0
2016-Apr-28 04:33N 51°58' E 004°04'0 0.0
2016-Apr-28 03:33N 51°58' E 004°04'0 0.0
2016-Apr-28 02:33N 51°58' E 004°04'0 0.0
2016-Apr-28 01:33N 51°58' E 004°04'0 0.0
2016-Apr-28 00:27N 51°58' E 004°04'0 0.0
2016-Apr-27 23:33N 51°58' E 004°04'0 0.0
2016-Apr-27 22:33N 51°58' E 004°04'0 0.0
2016-Apr-27 21:33N 51°58' E 004°04'0 0.0
2016-Apr-27 20:33N 51°58' E 004°04'0 0.0
2016-Apr-27 19:33N 51°58' E 004°04'0 0.0
2016-Apr-27 18:33N 51°58' E 004°04'0 0.0
2016-Apr-27 17:33N 51°58' E 004°04'1 0.5
2016-Apr-27 16:34N 51°58' E 004°05'8 7.6
2016-Apr-27 15:34N 52°02' E 003°54'41510.3
2016-Apr-25 23:05N 57°50' E 010°28'712.5
2016-Apr-25 22:34N 57°50' E 010°40'1111.2
2016-Apr-25 21:33N 57°43' E 010°56'1312.7
2016-Apr-25 20:34N 57°34' E 011°14'1212.3
2016-Apr-25 19:34N 57°25' E 011°28'1312.5
2016-Apr-25 18:33N 57°13' E 011°36'1212.4
2016-Apr-25 17:34N 57°01' E 011°43'1212.4
2016-Apr-25 16:34N 56°49' E 011°51'1111.3
2016-Apr-25 15:33N 56°38' E 011°46'8010.9
2016-Apr-25 08:14N 55°22' E 011°02'812.1
2016-Apr-25 07:33N 55°14' E 011°06'1111.0
2016-Apr-25 06:34N 55°04' E 010°60'1111.2
2016-Apr-25 05:33N 54°54' E 010°51'1111.4
2016-Apr-25 04:34N 54°43' E 010°47'1111.2
2016-Apr-25 03:34N 54°36' E 011°02'1111.4
2016-Apr-25 02:34N 54°33' E 011°21'1212.2
2016-Apr-25 01:33N 54°28' E 011°40'1212.0
2016-Apr-25 00:34N 54°27' E 012°01'10 9.7
2016-Apr-24 23:32N 54°33' E 012°14'9 9.8
2016-Apr-24 22:33N 54°40' E 012°26'  
Track history (hours):
 
Tides and Currents Weather Stations Pressure Air Temp Water Temp Dewpoint Dewpoint Depression Visibility Wind Speed Wind Dir Waves Ship Positions

Scf Baltica

Last reported at 2016-May-04 20:32 UTC. Time now 2016-May-04 21:10 UTC.
Position N 51°57' E 004°09'.

Length 250 m; draft 11.9 m.

Type: Ship. MMSI: 636012813.

Date/timePositionNaut miles runAvg speedWind from/ knotsBaromVisibWave heightAir tempDewpointWater temp
2016-May-04 20:32N 51°57' E 004°09'0 0.0
2016-May-04 19:33N 51°57' E 004°09'4 3.7
2016-May-04 18:33N 51°59' E 004°04'1010.1
2016-May-04 17:33N 52°00' E 003°47'1210.8
2016-May-04 16:29N 52°07' E 003°32'3 0.9
2016-May-04 12:32N 52°11' E 003°34'0 0.0
2016-May-04 11:31N 52°11' E 003°34'0 0.1
2016-May-04 08:29N 52°10' E 003°33'0 0.0
2016-May-04 06:11N 52°10' E 003°33'0 0.1
2016-May-04 04:19N 52°10' E 003°34'0 0.2
2016-May-04 03:20N 52°11' E 003°34'0 0.0
2016-May-03 23:19N 52°11' E 003°34'0 0.6
2016-May-03 22:28N 52°11' E 003°34'2110.2
2016-May-03 20:24N 52°17' E 003°01'1113.1
2016-May-03 19:33N 52°23' E 002°46'1312.8
2016-May-03 18:33N 52°34' E 002°37'13211.8
2016-May-03 07:22N 54°30' E 000°48'1012.6
2016-May-03 06:33N 54°36' E 000°35'1312.8
2016-May-03 05:33N 54°45' E 000°19'1313.1
2016-May-03 04:33N 54°54' E 000°02'1313.3
2016-May-03 03:33N 55°03' W 000°15'1613.6
2016-May-03 02:21N 55°14' W 000°36'1113.7
2016-May-03 01:33N 55°21' W 000°50'4314.4
2016-May-02 22:33N 55°50' W 001°47'1413.8
2016-May-02 21:33N 55°59' W 002°05'1413.6
2016-May-02 20:33N 56°06' W 002°27'1212.4
2016-May-02 19:34N 56°06' W 002°49'1111.3
2016-May-02 18:33N 56°03' W 003°09'7 7.2
2016-May-02 17:33N 56°01' W 003°21'0 0.0
2016-May-01 15:33N 56°01' W 003°21'7 7.2
2016-May-01 14:33N 56°03' W 003°09'8 7.9
2016-May-01 13:33N 56°05' W 002°55'1010.3
2016-May-01 12:33N 56°07' W 002°37'9 9.3
2016-May-01 11:33N 56°07' W 002°20'10 9.7
2016-May-01 10:33N 56°16' W 002°18'2 2.0
2016-May-01 09:33N 56°18' W 002°16'1 1.3
2016-May-01 08:33N 56°17' W 002°14'2 1.5
2016-May-01 07:33N 56°17' W 002°12'2 1.5
2016-May-01 06:33N 56°16' W 002°09'1 1.4
2016-May-01 05:33N 56°15' W 002°07'2 1.6
2016-May-01 04:33N 56°14' W 002°06'2 1.9
2016-May-01 03:33N 56°13' W 002°04'2 2.2
2016-May-01 02:33N 56°11' W 002°03'2 2.3
2016-May-01 01:33N 56°08' W 002°01'2 2.0
2016-May-01 00:33N 56°07' W 001°60'1 1.4
2016-Apr-30 23:33N 56°05' W 001°59'1 0.9
2016-Apr-30 22:32N 56°04' W 001°59'1 0.7
2016-Apr-30 21:33N 56°04' W 001°59'0 0.4
2016-Apr-30 20:33N 56°03' W 001°58'0 0.4
2016-Apr-30 19:18N 56°03' W 001°57'0 0.7
2016-Apr-30 18:33N 56°03' W 001°57'1 1.2
2016-Apr-30 17:33N 56°03' W 001°54'2 1.5
2016-Apr-30 16:33N 56°03' W 001°52'2 1.8
2016-Apr-30 15:33N 56°02' W 001°49'2 1.6
2016-Apr-30 14:31N 56°02' W 001°46'2 1.3
2016-Apr-30 13:17N 56°02' W 001°43'1 1.8
2016-Apr-30 12:33N 56°01' W 001°42'9 8.7
2016-Apr-30 11:33N 55°56' W 001°55'8 8.2
2016-Apr-30 10:33N 55°50' W 001°46'36 8.6
2016-Apr-30 06:25N 55°25' W 000°59'25 8.8
2016-Apr-30 03:33N 55°08' W 000°26'10 8.7
2016-Apr-30 02:25N 55°02' W 000°13'7 8.5
2016-Apr-30 01:33N 54°57' W 000°04'8 8.0
2016-Apr-30 00:33N 54°52' E 000°06'8 8.0
2016-Apr-29 23:33N 54°46' E 000°17'8 7.8
2016-Apr-29 22:33N 54°41' E 000°27'7 6.7
2016-Apr-29 21:30N 54°36' E 000°36'184 8.4
2016-Apr-28 23:32N 52°07' E 003°37'1010.1
2016-Apr-28 22:33N 52°03' E 003°52'9 9.4
2016-Apr-28 21:34N 51°58' E 004°05'0 0.5
2016-Apr-28 20:33N 51°58' E 004°04'0 0.0
2016-Apr-28 19:33N 51°58' E 004°04'0 0.0
2016-Apr-28 18:33N 51°58' E 004°04'0 0.0
2016-Apr-28 17:33N 51°58' E 004°04'0 0.0
2016-Apr-28 16:33N 51°58' E 004°04'0 0.0
2016-Apr-28 15:33N 51°58' E 004°04'0 0.0
2016-Apr-28 14:33N 51°58' E 004°04'0 0.0
2016-Apr-28 13:30N 51°58' E 004°04'0 0.0
2016-Apr-28 12:33N 51°58' E 004°04'0 0.0
2016-Apr-28 11:33N 51°58' E 004°04'0 0.0
2016-Apr-28 10:27N 51°58' E 004°04'0 0.0
2016-Apr-28 09:33N 51°58' E 004°04'0 0.0
2016-Apr-28 08:33N 51°58' E 004°04'0 0.0
2016-Apr-28 07:33N 51°58' E 004°04'0 0.0
2016-Apr-28 06:33N 51°58' E 004°04'0 0.0
2016-Apr-28 05:33N 51°58' E 004°04'0 0.0
2016-Apr-28 04:33N 51°58' E 004°04'0 0.0
2016-Apr-28 03:33N 51°58' E 004°04'0 0.0
2016-Apr-28 02:33N 51°58' E 004°04'0 0.0
2016-Apr-28 01:33N 51°58' E 004°04'0 0.0
2016-Apr-28 00:27N 51°58' E 004°04'0 0.0
2016-Apr-27 23:33N 51°58' E 004°04'0 0.0
2016-Apr-27 22:33N 51°58' E 004°04'0 0.0
2016-Apr-27 21:33N 51°58' E 004°04'0 0.0
2016-Apr-27 20:33N 51°58' E 004°04'0 0.0
2016-Apr-27 19:33N 51°58' E 004°04'0 0.0
2016-Apr-27 18:33N 51°58' E 004°04'0 0.0
2016-Apr-27 17:33N 51°58' E 004°04'1 0.5
2016-Apr-27 16:34N 51°58' E 004°05'8 7.6
2016-Apr-27 15:34N 52°02' E 003°54'41510.3
2016-Apr-25 23:05N 57°50' E 010°28'712.5
2016-Apr-25 22:34N 57°50' E 010°40'1111.2
2016-Apr-25 21:33N 57°43' E 010°56'1312.7
2016-Apr-25 20:34N 57°34' E 011°14'1212.3
2016-Apr-25 19:34N 57°25' E 011°28'1312.5
2016-Apr-25 18:33N 57°13' E 011°36'1212.4
2016-Apr-25 17:34N 57°01' E 011°43'1212.4
2016-Apr-25 16:34N 56°49' E 011°51'1111.3
2016-Apr-25 15:33N 56°38' E 011°46'8010.9
2016-Apr-25 08:14N 55°22' E 011°02'812.1
2016-Apr-25 07:33N 55°14' E 011°06'1111.0
2016-Apr-25 06:34N 55°04' E 010°60'1111.2
2016-Apr-25 05:33N 54°54' E 010°51'1111.4
2016-Apr-25 04:34N 54°43' E 010°47'1111.2
2016-Apr-25 03:34N 54°36' E 011°02'1111.4
2016-Apr-25 02:34N 54°33' E 011°21'1212.2
2016-Apr-25 01:33N 54°28' E 011°40'1212.0
2016-Apr-25 00:34N 54°27' E 012°01'10 9.7
2016-Apr-24 23:32N 54°33' E 012°14'9 9.8
2016-Apr-24 22:33N 54°40' E 012°26'  

Dump ship's entire track history